Share

La Crosse, KS (67548)

Rural Ellis Co. (KKSHAYS15) Elev 2119 ft | 38.81 °N, 99.37 °W | Change Station

Current weather conditions updated 13 minutes ago

Mostly Cloudy
Mostly Cloudy
46.4 °F
Feels Like 40 °F
N
15.5
Wind Variable Wind from NE
Sunrise 6:59 AM
Sunset 8:14 PM
Moon Waning Gibbous

Tomorrow is forecast to be Much Cooler than today.

Pressure 30.13 in
Visibility 10.0 miles
Clouds Mostly Cloudy 11000 ft
Windchill 40 °F
Dew Point 35 °F
Humidity 65%
Rainfall 0.00 in
Snow Depth Not available.
UV 0 out of 16
Pollen 10.90 out of 12
Air Quality Not available.
Flu Activity Sporadic
METAR KHYS 170435Z AUTO 02013G18KT 10SM BKN110 08/M01 A3013 RMK AO1

More Conditions Fewer Conditions

Pressure 30.13 in
Visibility 10.0 miles
Clouds Mostly Cloudy 11000 ft
Windchill 40 °F
Dew Point 35 °F
Humidity 65%
Rainfall 0.00 in
Snow Depth Not available.
UV 0 out of 16
Pollen 10.90 out of 12
Air Quality Not available.
Flu Activity Sporadic
METAR KHYS 170435Z AUTO 02013G18KT 10SM BKN110 08/M01 A3013 RMK AO1

More Conditions Fewer Conditions

10-Day Forecast

Almanac

Astronomy

Apr. 16, 2014 Rise Set
Actual Time 6:59 AM CDT 8:14 PM CDT
Civil Twilight 6:32 AM CDT 8:42 PM CDT
Nautical Twilight 5:59 AM CDT 9:15 PM CDT
Astronomical Twilight 5:25 AM CDT 9:49 PM CDT
Moon 9:59 PM CDT (4/16) 7:49 AM CDT (4/16)
Length of Visible Light 14h 10m
Length of Day
13h 15m
Tomorrow will be 2m 22s longer.
Waning Gibbous, 96% of the Moon is Illuminated
Apr 17
Waning Gibbous
Apr 22
Last Quarter
Apr 29
New
May 6
First Quarter
May 14
Full

Yesterday's Extremes

State Highs State Lows

Community

  • symphony in blue....
    symphony in blue....
  • Dawn Surprise
    Dawn Surprise
  • Yucca delight
    Yucca delight
  • Sunset inside of the Ocean
    Sunset inside of the Ocean
  • Lunar eclipse 15 April 2014
    Lunar eclipse 15 April 2014

WunderPhotos

Upload Photos

1,701,856 photos uploaded!

WunderBlogs® & News

Nearby

Snow Depth

Station Depth Elevation
No new snow has been reported.

Coastal Water Temperatures

Place Temperature
No Stations Reporting

Earthquake Activity

City Distance Mag. Time & Date
Medford, Oklahoma 141 miles 3.0 5:38 PM CDT
2014-04-12
Minimum magnitude displayed is 2.5.

Nearby Weather Stations

Station Location Temp. Windchill Dew Point Humidity Wind Precip. Elev Updated Type
Rural Ellis Co., Hays, KS 46.4 °F 40 °F 35 °F 65% NE  at  15.5 mph - / hr 2119 ft 11:33 PM CDT Normal
Sarrada Farms 2.0 N, 2.3 E, Rozel, KS 49.5 °F 45 °F 35 °F 57% NNE  at  12.1 mph 0.00 in / hr 2100 ft 11:47 PM CDT Rapid Fire
Hays Kansas Weather, Hays, KS 44.0 °F 39 °F 33 °F 64% NE  at  8.1 mph 0.00 in / hr 2070 ft 11:47 PM CDT Rapid Fire

Show More Stations Show Fewer Stations

What do you think?

We're not finished. Please let us know what you like, what you don't like, and what you are still missing.